Time;durP1;ratioP1;P1;durP2;ratioP2;P2;SDS_P1;SDS_P2;PMS_P1;PMS_P2;Temp;Humidity;BMP_temperature;BMP_pressure;BME280_temperature;BME280_humidity;BME280_pressure;Samples;Min_cycle;Max_cycle;Signal;HPM_P1;HPM_P2
2023/01/11 00:03:47;;;;;;;6.03;1.10;;;;;;;7.00;100.00;99804.31;12224879;19;20030;-80
2023/01/11 00:07:49;;;;;;;8.85;1.40;;;;;;;6.97;100.00;99800.13;12231933;19;20490;-81
2023/01/11 00:11:51;;;;;;;4.07;1.15;;;;;;;6.98;100.00;99793.56;12204305;19;20367;-80
2023/01/11 00:15:52;;;;;;;6.07;1.20;;;;;;;7.04;100.00;99789.91;12206060;19;20026;-79
2023/01/11 00:19:54;;;;;;;3.83;0.90;;;;;;;7.01;100.00;99773.09;12203622;19;20010;-81
2023/01/11 00:23:56;;;;;;;5.20;1.20;;;;;;;7.04;100.00;99778.13;12181785;19;20006;-79
2023/01/11 00:27:57;;;;;;;4.05;0.93;;;;;;;7.12;100.00;99772.34;12198521;19;20027;-82
2023/01/11 00:31:59;;;;;;;6.03;1.15;;;;;;;7.20;100.00;99763.84;12197147;19;20031;-81
2023/01/11 00:36:00;;;;;;;2.72;1.60;;;;;;;7.20;100.00;99761.09;12179573;19;20011;-79
2023/01/11 00:40:02;;;;;;;5.15;1.33;;;;;;;7.26;100.00;99749.22;12199433;19;20003;-80
2023/01/11 00:48:25;;;;;;;4.47;1.23;;;;;;;7.35;100.00;99725.06;12176243;19;20134;-78
2023/01/11 00:52:27;;;;;;;3.97;1.13;;;;;;;7.43;100.00;99715.66;12194146;19;20010;-80
2023/01/11 00:56:28;;;;;;;3.95;1.00;;;;;;;7.47;100.00;99716.91;12174205;19;20029;-80
2023/01/11 01:00:30;;;;;;;5.90;1.10;;;;;;;7.48;100.00;99707.59;12194719;19;20484;-80
2023/01/11 01:04:32;;;;;;;8.15;0.88;;;;;;;7.57;100.00;99717.16;12194810;19;20003;-79
2023/01/11 01:08:34;;;;;;;5.80;1.10;;;;;;;7.58;100.00;99724.31;12172726;19;20015;-80
2023/01/11 01:17:07;;;;;;;5.22;1.52;;;;;;;7.73;100.00;99713.78;12195549;19;20014;-80
2023/01/11 01:21:09;;;;;;;5.63;1.13;;;;;;;7.53;100.00;99719.53;12175407;19;20077;-80
2023/01/11 01:25:10;;;;;;;4.40;1.25;;;;;;;7.41;100.00;99717.81;12187705;19;20006;-83
2023/01/11 01:29:13;;;;;;;5.65;1.30;;;;;;;7.41;100.00;99715.09;12194336;19;20007;-81
2023/01/11 01:33:15;;;;;;;3.78;1.20;;;;;;;7.39;100.00;99708.97;12176426;19;20030;-81
2023/01/11 01:37:16;;;;;;;4.68;1.15;;;;;;;7.42;100.00;99706.59;12195436;19;20010;-79
2023/01/11 01:41:18;;;;;;;4.50;1.30;;;;;;;7.42;100.00;99714.00;12200091;19;21166;-79
2023/01/11 01:45:26;;;;;;;4.45;1.08;;;;;;;7.45;100.00;99714.38;12172299;19;20003;-80
2023/01/11 01:49:28;;;;;;;5.18;1.40;;;;;;;7.50;100.00;99705.47;12195353;19;20110;-80
2023/01/11 01:53:39;;;;;;;2.78;0.98;;;;;;;7.48;100.00;99702.09;12174891;19;20027;-79
2023/01/11 01:57:43;;;;;;;3.08;1.38;;;;;;;7.57;100.00;99700.72;12197252;19;20014;-79
2023/01/11 02:01:46;;;;;;;5.07;1.42;;;;;;;7.51;100.00;99707.13;12193469;19;20007;-80
2023/01/11 02:05:49;;;;;;;6.30;1.00;;;;;;;7.54;100.00;99695.69;12176611;19;20006;-82
2023/01/11 02:10:16;;;;;;;4.18;1.10;;;;;;;7.58;100.00;99699.63;12193368;19;20022;-79
2023/01/11 02:14:19;;;;;;;6.05;0.80;;;;;;;7.61;100.00;99690.94;12193263;19;20468;-79
2023/01/11 02:18:21;;;;;;;2.47;1.00;;;;;;;7.66;100.00;99685.59;12213241;19;20033;-79
2023/01/11 02:22:59;;;;;;;4.72;1.10;;;;;;;7.73;100.00;99678.13;12233245;19;20145;-79
2023/01/11 02:27:13;;;;;;;4.90;1.00;;;;;;;7.81;100.00;99673.34;12206983;19;20002;-78
2023/01/11 02:31:26;;;;;;;2.75;1.20;;;;;;;7.82;100.00;99664.03;12221408;19;20002;-78
2023/01/11 02:35:42;;;;;;;4.80;1.77;;;;;;;7.91;100.00;99665.38;12189757;19;20007;-80
2023/01/11 02:39:56;;;;;;;3.90;1.00;;;;;;;7.97;100.00;99664.44;12215435;19;20613;-81
2023/01/11 02:48:39;;;;;;;3.53;0.80;;;;;;;8.01;100.00;99651.09;12189285;19;20011;-79
2023/01/11 02:52:50;;;;;;;3.67;1.40;;;;;;;8.11;100.00;99659.56;12203720;19;20006;-80
2023/01/11 02:56:56;;;;;;;4.93;1.27;;;;;;;8.06;100.00;99654.81;12187055;19;20038;-80
2023/01/11 03:00:58;;;;;;;2.22;1.05;;;;;;;8.05;100.00;99647.63;12205274;19;21036;-79
2023/01/11 03:05:00;;;;;;;4.90;1.08;;;;;;;8.08;100.00;99633.41;12208321;19;20031;-79
2023/01/11 03:09:08;;;;;;;5.90;1.10;;;;;;;8.09;100.00;99637.84;12185877;19;20042;-79
2023/01/11 03:13:40;;;;;;;1.67;0.82;;;;;;;8.15;100.00;99631.41;12201099;19;20023;-80
2023/01/11 03:17:53;;;;;;;3.08;0.98;;;;;;;8.18;100.00;99635.59;12184284;19;20013;-80
2023/01/11 03:22:05;;;;;;;3.92;1.00;;;;;;;8.22;100.00;99632.13;12199716;19;20063;-78
2023/01/11 03:26:13;;;;;;;2.73;0.93;;;;;;;8.20;100.00;99623.28;12204631;19;21169;-82
2023/01/11 03:30:31;;;;;;;2.65;0.93;;;;;;;8.22;100.00;99625.78;12185986;19;20030;-80
2023/01/11 03:34:39;;;;;;;3.80;1.63;;;;;;;8.29;100.00;99611.94;12209517;19;20011;-79
2023/01/11 03:38:54;;;;;;;4.63;1.10;;;;;;;8.30;100.00;99613.59;12193450;19;20003;-80
2023/01/11 03:43:10;;;;;;;3.03;0.88;;;;;;;8.31;100.00;99607.88;12245454;19;20039;-82
2023/01/11 03:47:14;;;;;;;2.95;1.00;;;;;;;8.35;100.00;99600.00;12218987;19;20905;-82
2023/01/11 03:51:23;;;;;;;4.45;0.95;;;;;;;8.42;100.00;99596.09;12182908;19;20464;-80
2023/01/11 03:55:29;;;;;;;3.25;1.00;;;;;;;8.49;100.00;99586.88;12220677;19;20058;-80
2023/01/11 03:59:31;;;;;;;3.70;1.02;;;;;;;8.56;100.00;99584.84;12191416;19;20011;-78
2023/01/11 04:03:32;;;;;;;6.27;0.97;;;;;;;8.55;100.00;99573.03;12208599;19;20010;-80
2023/01/11 04:07:34;;;;;;;2.50;1.10;;;;;;;8.62;100.00;99572.88;12214180;19;20002;-80
2023/01/11 04:11:36;;;;;;;2.45;0.80;;;;;;;8.61;100.00;99571.22;12186160;19;20003;-79
2023/01/11 04:15:37;;;;;;;8.40;1.48;;;;;;;8.65;100.00;99564.16;12209223;19;20019;-79
2023/01/11 04:19:39;;;;;;;2.90;1.00;;;;;;;8.67;100.00;99567.50;12207373;19;20006;-82
2023/01/11 04:23:40;;;;;;;2.78;1.27;;;;;;;8.66;100.00;99554.84;12182354;19;20007;-82
2023/01/11 04:27:42;;;;;;;3.70;1.00;;;;;;;8.75;100.00;99547.06;12202819;19;20123;-81
2023/01/11 04:31:44;;;;;;;6.35;1.65;;;;;;;8.83;100.00;99550.25;12202648;19;20023;-81
2023/01/11 04:35:45;;;;;;;4.55;1.17;;;;;;;8.69;100.00;99554.38;12176618;19;20941;-82
2023/01/11 04:39:47;;;;;;;3.05;1.30;;;;;;;8.52;100.00;99548.78;12202975;19;20042;-83
2023/01/11 04:43:48;;;;;;;5.85;1.52;;;;;;;8.48;100.00;99541.25;12197276;19;20575;-81
2023/01/11 04:47:56;;;;;;;4.35;1.20;;;;;;;8.38;100.00;99547.34;12177884;19;20030;-83
2023/01/11 04:51:58;;;;;;;3.28;0.93;;;;;;;8.31;100.00;99546.66;12193965;19;20030;-83
2023/01/11 04:56:04;;;;;;;3.83;1.30;;;;;;;8.30;100.00;99542.22;12197583;19;20496;-84
2023/01/11 05:00:09;;;;;;;6.45;1.15;;;;;;;8.29;100.00;99537.81;12178444;19;20093;-82
2023/01/11 05:04:11;;;;;;;2.95;1.20;;;;;;;8.39;100.00;99549.91;12196403;19;19998;-84
2023/01/11 05:08:14;;;;;;;2.15;1.20;;;;;;;8.44;100.00;99543.66;12197786;19;20030;-83
2023/01/11 05:12:15;;;;;;;5.32;1.20;;;;;;;8.50;100.00;99539.13;12174768;19;20097;-84
2023/01/11 05:16:20;;;;;;;3.88;1.13;;;;;;;8.53;100.00;99533.97;12195760;19;20066;-83
2023/01/11 05:20:22;;;;;;;3.97;1.20;;;;;;;8.63;100.00;99534.19;12195154;19;20377;-84
2023/01/11 05:24:23;;;;;;;3.58;1.30;;;;;;;8.63;100.00;99531.44;12175307;19;20010;-84
2023/01/11 05:28:25;;;;;;;4.35;1.00;;;;;;;8.63;100.00;99539.69;12194963;19;20768;-84
2023/01/11 05:32:26;;;;;;;4.43;0.88;;;;;;;8.72;100.00;99528.31;12176238;19;20023;-83
2023/01/11 05:36:28;;;;;;;2.03;0.82;;;;;;;8.77;100.00;99534.72;12199083;19;20038;-83
2023/01/11 05:40:30;;;;;;;4.13;1.00;;;;;;;8.89;100.00;99530.03;12198575;19;20031;-83
2023/01/11 05:48:53;;;;;;;2.88;1.00;;;;;;;8.96;100.00;99513.41;12197914;19;20046;-81
2023/01/11 05:52:55;;;;;;;2.42;1.00;;;;;;;9.06;100.00;99510.81;12198248;19;20006;-80
2023/01/11 05:56:56;;;;;;;3.75;0.98;;;;;;;9.05;100.00;99505.59;12185877;19;20018;-81
2023/01/11 06:00:58;;;;;;;1.52;0.93;;;;;;;9.05;100.00;99506.41;12209492;19;20007;-82
2023/01/11 06:05:00;;;;;;;2.38;1.13;;;;;;;9.05;100.00;99491.84;12210666;19;20006;-80
2023/01/11 06:09:02;;;;;;;3.78;1.20;;;;;;;9.05;100.00;99498.16;12195507;19;20019;-83
2023/01/11 06:17:24;;;;;;;2.30;1.30;;;;;;;9.00;100.00;99494.50;12198455;19;20090;-85
2023/01/11 06:21:26;;;;;;;6.30;1.27;;;;;;;9.01;100.00;99486.00;12209330;19;20002;-83
2023/01/11 06:25:29;;;;;;;2.55;1.20;;;;;;;8.99;100.00;99482.66;12209497;19;20539;-82
2023/01/11 06:29:30;;;;;;;4.90;2.25;;;;;;;8.99;100.00;99470.84;12189620;19;20408;-83
2023/01/11 06:33:36;;;;;;;2.85;1.27;;;;;;;8.97;100.00;99462.84;12208684;19;20002;-84
2023/01/11 06:37:38;;;;;;;2.60;1.40;;;;;;;8.87;100.00;99469.00;12209430;19;20043;-83
2023/01/11 06:41:40;;;;;;;3.43;1.50;;;;;;;8.97;100.00;99457.34;12192400;19;20011;-82
2023/01/11 06:45:42;;;;;;;2.15;1.20;;;;;;;9.00;100.00;99451.34;12217383;19;20019;-83
2023/01/11 06:49:44;;;;;;;2.22;0.80;;;;;;;9.02;100.00;99442.88;12209577;19;20078;-84
2023/01/11 06:53:45;;;;;;;4.30;1.17;;;;;;;9.06;100.00;99436.59;12197526;19;21038;-83
2023/01/11 06:57:47;;;;;;;3.97;1.17;;;;;;;9.14;100.00;99429.88;12218209;19;20042;-84
2023/01/11 07:01:49;;;;;;;1.88;0.90;;;;;;;9.24;100.00;99409.97;12212969;19;20034;-87
2023/01/11 07:05:55;;;;;;;4.38;1.00;;;;;;;9.32;100.00;99426.88;12207123;19;20011;-83
2023/01/11 07:09:57;;;;;;;2.38;0.98;;;;;;;9.36;100.00;99424.44;12223248;19;20903;-81
2023/01/11 07:13:59;;;;;;;1.88;0.90;;;;;;;9.44;100.00;99434.19;12206024;19;20011;-83
2023/01/11 07:18:03;;;;;;;3.22;0.90;;;;;;;9.43;100.00;99427.88;12189550;19;20009;-84
2023/01/11 07:22:06;;;;;;;3.58;1.02;;;;;;;9.42;100.00;99428.94;12212477;19;20460;-83
2023/01/11 07:26:13;;;;;;;2.17;0.80;;;;;;;9.48;100.00;99429.84;12212694;19;20017;-83
2023/01/11 07:30:14;;;;;;;;;;;;;;;9.57;100.00;99428.34;12188789;19;20015;-84
2023/01/11 07:34:29;;;;;;;2.17;0.80;;;;;;;9.60;100.00;99419.56;12212191;19;19903;-83
2023/01/11 07:38:33;;;;;;;2.10;0.75;;;;;;;9.63;100.00;99426.50;12188267;19;20031;-83
2023/01/11 07:46:57;;;;;;;1.38;0.80;;;;;;;9.75;100.00;99433.53;12207343;19;20022;-80
2023/01/11 07:50:58;;;;;;;3.25;0.80;;;;;;;9.78;100.00;99437.72;12190242;19;20010;-82
2023/01/11 07:55:01;;;;;;;2.42;1.05;;;;;;;9.64;100.00;99433.66;12208764;19;20070;-85
2023/01/11 07:59:04;;;;;;;2.50;1.20;;;;;;;9.67;100.00;99438.66;12205275;19;20006;-83
2023/01/11 08:03:07;;;;;;;4.15;1.40;;;;;;;9.56;100.00;99430.25;12185113;19;20487;-82
2023/01/11 08:07:09;;;;;;;2.10;1.17;;;;;;;9.49;100.00;99437.03;12206504;19;20013;-84
2023/01/11 08:15:33;;;;;;;2.33;1.08;;;;;;;9.48;100.00;99430.69;12184813;19;20002;-82
2023/01/11 08:19:35;;;;;;;2.00;1.00;;;;;;;9.50;100.00;99435.94;12207494;19;20473;-83
2023/01/11 08:23:36;;;;;;;3.28;1.10;;;;;;;9.49;100.00;99434.28;12183260;19;21161;-82
2023/01/11 08:27:38;;;;;;;1.75;1.00;;;;;;;9.49;100.00;99437.03;12204251;19;20006;-81
2023/01/11 08:31:45;;;;;;;;;;;;;;;9.45;100.00;99430.34;12207327;19;20030;-81
2023/01/11 08:35:48;;;;;;;3.50;1.27;;;;;;;9.49;100.00;99428.78;12166837;19;19902;-82
2023/01/11 08:39:51;;;;;;;4.82;1.30;;;;;;;9.50;100.00;99420.25;12246748;19;20010;-80
2023/01/11 08:43:54;;;;;;;3.67;1.30;;;;;;;9.42;100.00;99420.69;12257611;19;20039;-81
2023/01/11 08:47:58;;;;;;;3.17;1.20;;;;;;;9.39;100.00;99415.69;12245534;19;19998;-81
2023/01/11 08:51:59;;;;;;;3.20;1.10;;;;;;;9.40;100.00;99422.88;12239042;19;20116;-82
2023/01/11 08:56:01;;;;;;;3.03;0.95;;;;;;;9.39;100.00;99423.09;12210950;19;20089;-82
2023/01/11 09:00:05;;;;;;;3.08;1.13;;;;;;;9.43;100.00;99427.00;12187819;19;20039;-81
2023/01/11 09:04:08;;;;;;;3.42;0.90;;;;;;;9.44;100.00;99423.19;12209831;19;20026;-81
2023/01/11 09:08:25;;;;;;;3.00;1.20;;;;;;;9.45;100.00;99430.34;12196863;19;20010;-81
2023/01/11 09:12:31;;;;;;;2.38;1.10;;;;;;;9.44;100.00;99431.44;12202445;19;20025;-81
2023/01/11 09:16:34;;;;;;;2.08;0.88;;;;;;;9.42;100.00;99422.59;12209099;19;20026;-82
2023/01/11 09:20:35;;;;;;;2.50;1.15;;;;;;;9.47;100.00;99426.28;12189627;19;20017;-82
2023/01/11 09:24:37;;;;;;;2.40;1.13;;;;;;;9.52;100.00;99426.34;12205439;19;20014;-81
2023/01/11 09:28:39;;;;;;;2.03;1.00;;;;;;;9.48;100.00;99421.59;12204782;19;20013;-80
2023/01/11 09:32:41;;;;;;;3.22;1.08;;;;;;;9.55;100.00;99436.03;12184111;19;20015;-80
2023/01/11 09:36:45;;;;;;;2.88;0.93;;;;;;;9.49;100.00;99442.53;12206894;19;20015;-80
2023/01/11 09:41:26;;;;;;;2.08;0.90;;;;;;;9.46;100.00;99443.00;12203735;19;20646;-79
2023/01/11 09:45:31;;;;;;;2.67;1.13;;;;;;;9.46;100.00;99438.38;12180406;19;20041;-80
2023/01/11 09:49:40;;;;;;;1.95;1.00;;;;;;;9.50;100.00;99427.69;12204934;19;20041;-79
2023/01/11 09:53:48;;;;;;;3.67;1.40;;;;;;;9.57;100.00;99434.66;12178002;19;20009;-79
2023/01/11 09:58:01;;;;;;;2.83;1.20;;;;;;;9.62;100.00;99431.16;12206179;19;20003;-80
2023/01/11 10:02:22;;;;;;;3.88;1.30;;;;;;;9.66;100.00;99443.31;12205827;19;20002;-80
2023/01/11 10:06:38;;;;;;;4.53;1.00;;;;;;;9.62;100.00;99433.91;12181797;19;20006;-82
2023/01/11 10:10:50;;;;;;;2.80;1.40;;;;;;;9.65;100.00;99432.59;12204264;19;20017;-80
2023/01/11 10:15:27;;;;;;;5.57;1.10;;;;;;;9.62;100.00;99436.66;12179381;19;20010;-81
2023/01/11 10:20:00;;;;;;;3.67;1.08;;;;;;;9.59;100.00;99443.50;12201619;19;20512;-79
2023/01/11 10:24:13;;;;;;;;;;;;;;;9.63;100.00;99434.75;12176529;19;21172;-79
2023/01/11 10:28:22;;;;;;;2.50;1.15;;;;;;;9.73;100.00;99448.66;12199365;19;19915;-79
2023/01/11 10:32:52;;;;;;;7.13;1.75;;;;;;;9.74;100.00;99451.16;12204158;19;20042;-80
2023/01/11 10:37:33;;;;;;;4.20;1.67;;;;;;;9.78;100.00;99457.78;12178321;19;20014;-79
2023/01/11 10:41:53;;;;;;;4.70;2.17;;;;;;;9.75;100.00;99458.31;12191639;19;21175;-80
2023/01/11 10:45:59;;;;;;;5.32;2.15;;;;;;;9.79;100.00;99465.00;12210723;19;21584;-79
2023/01/11 10:50:23;;;;;;;2.92;1.52;;;;;;;9.81;100.00;99461.97;12212867;19;20091;-79
2023/01/11 10:54:30;;;;;;;5.82;2.22;;;;;;;9.89;100.00;99464.28;12184070;19;20003;-79
2023/01/11 10:59:04;;;;;;;3.40;1.73;;;;;;;9.90;100.00;99471.44;12208374;19;20024;-80
2023/01/11 11:03:27;;;;;;;7.70;2.50;;;;;;;9.95;100.00;99474.28;12190527;19;20003;-79
2023/01/11 11:07:45;;;;;;;5.15;1.92;;;;;;;10.02;100.00;99472.19;12208010;19;20026;-78
2023/01/11 11:11:57;;;;;;;3.63;2.33;;;;;;;10.06;100.00;99474.44;12188973;19;20019;-78
2023/01/11 11:16:21;;;;;;;7.85;2.58;;;;;;;10.08;100.00;99469.50;12213127;19;20026;-78
2023/01/11 11:20:29;;;;;;;4.80;2.70;;;;;;;10.16;100.00;99480.06;12211081;19;20030;-78
2023/01/11 11:24:47;;;;;;;5.30;3.08;;;;;;;10.29;100.00;99474.19;12186111;19;20018;-79
2023/01/11 11:29:10;;;;;;;7.35;2.90;;;;;;;10.60;100.00;99474.59;12211643;19;20377;-80
2023/01/11 11:33:33;;;;;;;4.68;2.75;;;;;;;10.78;100.00;99470.66;12189692;19;20042;-80
2023/01/11 11:37:40;;;;;;;10.55;4.35;;;;;;;10.79;100.00;99456.59;12210711;19;20506;-80
2023/01/11 11:41:48;;;;;;;5.95;3.00;;;;;;;10.88;100.00;99462.47;12186958;19;20010;-81
2023/01/11 11:45:55;;;;;;;5.88;3.13;;;;;;;10.98;100.00;99447.97;12203752;19;20010;-81
2023/01/11 11:50:30;;;;;;;6.75;3.28;;;;;;;11.01;100.00;99455.72;12209169;19;20007;-80
2023/01/11 11:54:52;;;;;;;4.97;2.80;;;;;;;11.08;100.00;99454.41;12187747;19;20028;-80
2023/01/11 11:58:55;;;;;;;6.60;3.00;;;;;;;11.12;100.00;99450.03;12213352;19;20010;-82
2023/01/11 12:03:03;;;;;;;3.88;2.58;;;;;;;11.23;100.00;99458.38;12185267;19;20006;-81
2023/01/11 12:07:04;;;;;;;6.00;3.13;;;;;;;11.29;100.00;99447.13;12209971;19;20038;-81
2023/01/11 12:11:13;;;;;;;5.40;2.42;;;;;;;11.34;100.00;99451.88;12212342;19;20511;-81
2023/01/11 12:15:15;;;;;;;4.47;2.53;;;;;;;11.23;100.00;99461.97;12181372;19;20011;-81
2023/01/11 12:19:40;;;;;;;6.72;2.92;;;;;;;11.19;100.00;99458.09;12207111;19;20073;-81
2023/01/11 12:23:43;;;;;;;4.80;2.92;;;;;;;11.12;100.00;99454.69;12183498;19;20477;-81
2023/01/11 12:28:01;;;;;;;6.43;3.00;;;;;;;11.03;100.00;99453.50;12206697;19;20011;-81
2023/01/11 12:32:50;;;;;;;7.38;3.13;;;;;;;10.95;100.00;99452.91;12210632;19;20376;-81
2023/01/11 12:37:19;;;;;;;5.00;3.00;;;;;;;10.95;100.00;99452.91;12186319;19;20078;-81
2023/01/11 12:41:44;;;;;;;4.32;2.50;;;;;;;10.94;100.00;99453.97;12206757;19;20003;-81
2023/01/11 12:46:11;;;;;;;6.38;3.03;;;;;;;10.99;100.00;99438.59;12177763;19;20515;-81
2023/01/11 12:50:24;;;;;;;4.80;2.42;;;;;;;10.95;100.00;99450.16;12208490;19;20345;-80
2023/01/11 12:54:51;;;;;;;4.63;2.63;;;;;;;11.06;100.00;99472.28;12181015;19;20007;-81
2023/01/11 12:59:20;;;;;;;4.85;2.22;;;;;;;11.07;100.00;99485.84;12208357;19;20006;-81
2023/01/11 13:03:33;;;;;;;4.45;2.00;;;;;;;10.89;100.00;99484.28;12185076;19;20407;-81
2023/01/11 13:08:22;;;;;;;5.25;2.22;;;;;;;10.88;100.00;99493.63;12211113;19;20090;-81
2023/01/11 13:12:33;;;;;;;4.53;2.17;;;;;;;10.89;100.00;99489.78;12184811;19;20431;-81
2023/01/11 13:16:43;;;;;;;4.00;2.13;;;;;;;10.89;100.00;99476.00;12212035;19;20361;-80
2023/01/11 13:20:51;;;;;;;3.67;1.92;;;;;;;10.97;100.00;99476.63;12188830;19;20006;-80
2023/01/11 13:25:13;;;;;;;5.50;2.05;;;;;;;10.95;100.00;99488.75;12211982;19;20006;-81
2023/01/11 13:29:19;;;;;;;6.95;3.67;;;;;;;10.95;100.00;99505.28;12210600;19;20042;-81
2023/01/11 13:33:22;;;;;;;7.75;3.28;;;;;;;10.98;100.00;99494.84;12202751;19;20007;-80
2023/01/11 13:37:33;;;;;;;7.40;3.35;;;;;;;11.02;100.00;99509.75;12228000;19;20495;-82
2023/01/11 13:41:45;;;;;;;5.10;2.38;;;;;;;10.95;100.00;99509.97;12233211;19;20007;-80
2023/01/11 13:45:57;;;;;;;6.50;2.88;;;;;;;11.03;100.00;99515.00;12235375;19;20002;-82
2023/01/11 13:50:23;;;;;;;5.07;3.30;;;;;;;11.11;100.00;99524.75;12217751;19;20021;-81
2023/01/11 13:55:23;;;;;;;5.40;2.75;;;;;;;11.05;100.00;99526.59;12193388;19;20006;-82
2023/01/11 13:59:33;;;;;;;5.10;2.20;;;;;;;11.08;100.00;99525.25;12209009;19;20034;-82
2023/01/11 14:03:48;;;;;;;3.75;2.33;;;;;;;11.07;100.00;99551.19;12186625;19;20074;-82
2023/01/11 14:07:51;;;;;;;;;;;;;;;11.04;100.00;99554.47;12209815;19;20014;-80
2023/01/11 14:12:19;;;;;;;3.80;1.70;;;;;;;11.06;100.00;99557.75;12184858;19;20872;-83
2023/01/11 14:16:36;;;;;;;4.35;1.67;;;;;;;11.06;100.00;99557.75;12219675;19;20347;-83
2023/01/11 14:20:53;;;;;;;2.58;1.00;;;;;;;11.01;100.00;99557.72;12199026;19;20003;-83
2023/01/11 14:25:03;;;;;;;2.45;1.10;;;;;;;10.98;100.00;99563.78;12216196;19;20019;-82
2023/01/11 14:29:31;;;;;;;3.05;1.48;;;;;;;10.87;100.00;99569.16;12212584;19;20070;-83
2023/01/11 14:33:51;;;;;;;4.20;1.58;;;;;;;10.77;100.00;99579.19;12187984;19;20400;-83
2023/01/11 14:38:08;;;;;;;3.95;1.88;;;;;;;10.70;100.00;99580.22;12218758;19;20856;-82
2023/01/11 14:42:42;;;;;;;2.63;1.30;;;;;;;10.63;100.00;99576.03;12189960;19;20345;-82
2023/01/11 14:47:11;;;;;;;2.67;1.23;;;;;;;10.57;100.00;99596.31;12241339;19;20018;-83
2023/01/11 14:51:23;;;;;;;3.15;1.30;;;;;;;10.53;100.00;99607.03;12240537;19;20019;-83
2023/01/11 14:55:45;;;;;;;1.58;0.90;;;;;;;10.44;100.00;99614.91;12224182;19;20037;-83
2023/01/11 14:59:47;;;;;;;4.80;1.83;;;;;;;10.37;100.00;99630.75;12191241;19;20006;-83
2023/01/11 15:03:54;;;;;;;3.70;1.73;;;;;;;10.33;100.00;99645.31;12210362;19;20344;-84
2023/01/11 15:08:25;;;;;;;6.28;2.78;;;;;;;10.29;100.00;99658.72;12216041;19;20074;-84
2023/01/11 15:12:36;;;;;;;5.60;2.30;;;;;;;10.27;100.00;99664.50;12190453;19;20006;-83
2023/01/11 15:21:16;;;;;;;2.75;1.20;;;;;;;10.12;100.00;99671.66;12192223;19;20006;-83
2023/01/11 15:25:22;;;;;;;4.82;1.52;;;;;;;10.06;100.00;99667.97;12206925;19;20014;-83
2023/01/11 15:29:40;;;;;;;6.28;1.60;;;;;;;10.00;100.00;99680.00;12213778;19;20002;-83
2023/01/11 15:33:47;;;;;;;4.97;1.20;;;;;;;9.93;100.00;99680.13;12192716;19;20006;-83
2023/01/11 15:37:54;;;;;;;3.90;0.95;;;;;;;9.88;100.00;99687.47;12215553;19;20050;-83
2023/01/11 15:42:21;;;;;;;4.97;1.40;;;;;;;9.87;100.00;99694.88;12186317;19;20020;-83
2023/01/11 15:46:51;;;;;;;4.90;1.30;;;;;;;9.82;100.00;99703.06;12207218;19;20010;-85
2023/01/11 15:51:00;;;;;;;3.78;0.90;;;;;;;9.80;100.00;99718.97;12193793;19;20013;-85
2023/01/11 15:55:16;;;;;;;4.65;1.10;;;;;;;9.73;100.00;99712.81;12207111;19;20102;-84
2023/01/11 15:59:55;;;;;;;5.32;1.88;;;;;;;9.66;100.00;99725.88;12214552;19;20414;-82
2023/01/11 16:04:03;;;;;;;4.40;1.23;;;;;;;9.64;100.00;99741.78;12193130;19;21088;-83
2023/01/11 16:08:31;;;;;;;6.40;1.25;;;;;;;9.53;100.00;99749.84;12214315;19;20460;-83
2023/01/11 16:12:48;;;;;;;6.63;1.73;;;;;;;9.49;100.00;99756.91;12183336;19;20045;-82
2023/01/11 16:16:53;;;;;;;6.10;1.42;;;;;;;9.45;100.00;99777.72;12196483;19;20006;-83
2023/01/11 16:21:08;;;;;;;8.27;1.45;;;;;;;9.54;100.00;99776.25;12182851;19;20015;-79
2023/01/11 16:25:13;;;;;;;6.20;1.58;;;;;;;9.66;100.00;99772.63;12200689;19;20015;-82
2023/01/11 16:29:35;;;;;;;5.40;1.15;;;;;;;9.68;100.00;99773.25;12203759;19;20028;-81
2023/01/11 16:33:37;;;;;;;4.35;1.40;;;;;;;9.57;100.00;99775.75;12181165;19;20011;-82
2023/01/11 16:37:45;;;;;;;6.82;1.23;;;;;;;9.51;100.00;99771.25;12201233;19;20025;-82
2023/01/11 16:41:55;;;;;;;7.22;1.83;;;;;;;9.44;100.00;99778.81;12177963;19;20017;-82
2023/01/11 16:45:57;;;;;;;7.50;1.58;;;;;;;9.33;100.00;99776.91;12198477;19;20006;-83
2023/01/11 16:50:14;;;;;;;11.10;2.53;;;;;;;9.15;100.00;99783.41;12247947;19;19991;-81
2023/01/11 16:54:23;;;;;;;5.25;1.70;;;;;;;9.00;100.00;99789.41;12192386;19;20365;-82
2023/01/11 16:58:27;;;;;;;9.32;2.03;;;;;;;8.87;100.00;99797.91;12214210;19;20017;-82
2023/01/11 17:02:34;;;;;;;5.10;1.50;;;;;;;8.78;100.00;99810.31;12211459;19;20018;-82
2023/01/11 17:06:36;;;;;;;6.53;1.48;;;;;;;8.72;100.00;99827.75;12186806;19;20017;-82
2023/01/11 17:10:38;;;;;;;7.88;1.85;;;;;;;8.66;100.00;99819.38;12208209;19;20013;-82
2023/01/11 17:15:04;;;;;;;5.82;1.30;;;;;;;8.61;100.00;99832.16;12185426;19;20026;-82
2023/01/11 17:19:17;;;;;;;7.88;2.20;;;;;;;8.56;100.00;99837.50;12210710;19;20746;-82
2023/01/11 17:23:19;;;;;;;6.68;1.98;;;;;;;8.50;100.00;99842.03;12207594;19;20673;-82
2023/01/11 17:27:35;;;;;;;6.63;1.98;;;;;;;8.41;100.00;99849.78;12191707;19;20003;-82
2023/01/11 17:31:38;;;;;;;14.68;3.90;;;;;;;8.39;100.00;99859.34;12210713;19;20003;-81
2023/01/11 17:35:40;;;;;;;9.82;3.30;;;;;;;8.30;100.00;99855.19;12186425;19;20346;-81
2023/01/11 17:39:48;;;;;;;9.20;3.63;;;;;;;8.23;100.00;99858.88;12209551;19;20361;-81
2023/01/11 17:48:14;;;;;;;9.93;3.22;;;;;;;8.28;100.00;99866.41;12188286;19;20053;-82
2023/01/11 17:52:20;;;;;;;11.18;2.65;;;;;;;8.21;100.00;99855.53;12211215;19;20010;-82
2023/01/11 17:56:31;;;;;;;13.77;2.92;;;;;;;8.15;100.00;99866.59;12214461;19;20425;-81
2023/01/11 18:00:33;;;;;;;9.68;2.65;;;;;;;8.05;100.00;99880.88;12199496;19;20002;-82
2023/01/11 18:04:36;;;;;;;15.38;3.55;;;;;;;7.97;100.00;99894.91;12216602;19;20015;-81
2023/01/11 18:08:38;;;;;;;11.60;3.47;;;;;;;7.93;100.00;99910.19;12199808;19;20028;-82
2023/01/11 18:12:43;;;;;;;13.25;2.90;;;;;;;7.92;100.00;99903.84;12214914;19;20014;-81
2023/01/11 18:17:04;;;;;;;12.50;3.55;;;;;;;7.90;100.00;99916.13;12211846;19;20002;-81
2023/01/11 18:21:23;;;;;;;8.95;3.05;;;;;;;7.87;100.00;99925.66;12192860;19;20010;-82
2023/01/11 18:25:28;;;;;;;17.38;2.75;;;;;;;7.82;100.00;99928.22;12214374;19;20015;-83
2023/01/11 18:29:36;;;;;;;12.93;3.10;;;;;;;7.80;100.00;99926.81;12223407;19;20074;-82
2023/01/11 18:33:40;;;;;;;10.50;3.42;;;;;;;7.79;100.00;99928.69;12197016;19;20010;-81
2023/01/11 18:37:42;;;;;;;12.43;4.00;;;;;;;7.74;100.00;99934.03;12215073;19;20430;-81
2023/01/11 18:46:04;;;;;;;12.43;2.72;;;;;;;7.64;100.00;99937.28;12243578;19;20009;-79
2023/01/11 18:50:07;;;;;;;10.70;2.55;;;;;;;7.62;100.00;99944.94;12216140;19;20082;-82
2023/01/11 18:54:14;;;;;;;12.40;3.42;;;;;;;7.55;100.00;99952.38;12194866;19;20044;-81
2023/01/11 18:58:16;;;;;;;17.20;3.55;;;;;;;7.48;100.00;99955.19;12218596;19;20337;-82
2023/01/11 19:02:28;;;;;;;12.70;3.45;;;;;;;7.46;100.00;99981.16;12218827;19;20041;-81
2023/01/11 19:06:29;;;;;;;13.07;3.17;;;;;;;7.42;100.00;99974.44;12191927;19;20002;-81
2023/01/11 19:10:31;;;;;;;11.82;3.05;;;;;;;7.36;100.00;99972.63;12217164;19;20033;-80
2023/01/11 19:14:33;;;;;;;8.30;3.10;;;;;;;7.30;100.00;99969.69;12198452;19;20003;-82
2023/01/11 19:18:35;;;;;;;16.83;3.67;;;;;;;7.28;100.00;99993.75;12211859;19;20539;-80
2023/01/11 19:22:36;;;;;;;11.80;2.97;;;;;;;7.24;100.00;99995.25;12205642;19;20007;-80
2023/01/11 19:26:38;;;;;;;12.55;2.70;;;;;;;7.25;100.00;100001.56;12185428;19;20034;-81
2023/01/11 19:30:40;;;;;;;9.77;2.78;;;;;;;7.32;100.00;100010.59;12216254;19;20003;-80
2023/01/11 19:34:41;;;;;;;8.45;2.60;;;;;;;7.41;100.00;100009.25;12208750;19;20003;-81
2023/01/11 19:38:46;;;;;;;9.25;2.65;;;;;;;7.46;100.00;100008.56;12191824;19;20414;-83
2023/01/11 19:42:51;;;;;;;7.07;2.30;;;;;;;7.47;100.00;100013.00;12212249;19;20103;-81
2023/01/11 19:46:53;;;;;;;10.40;2.25;;;;;;;7.53;100.00;100007.47;12209289;19;20034;-81
2023/01/11 19:51:11;;;;;;;9.55;2.63;;;;;;;7.53;100.00;100012.94;12188896;19;20038;-80
2023/01/11 19:55:13;;;;;;;6.60;2.08;;;;;;;7.47;100.00;99999.31;12204749;19;20023;-80
2023/01/11 19:59:15;;;;;;;12.38;2.40;;;;;;;7.38;100.00;99992.44;12208530;19;20011;-79
2023/01/11 20:03:17;;;;;;;14.52;3.60;;;;;;;7.27;100.00;99992.06;12188004;19;20011;-80